createdAt,value
2022-08-03T00:00:30.064Z,19.98
2022-08-03T00:02:57.060Z,19.97
2022-08-03T00:05:23.974Z,19.95
2022-08-03T00:07:51.001Z,19.92
2022-08-03T00:10:19.956Z,19.96
2022-08-03T00:12:53.420Z,19.96
2022-08-03T00:15:43.595Z,19.96
2022-08-03T00:21:38.673Z,19.92
2022-08-03T00:24:17.772Z,20.00
2022-08-03T00:26:45.739Z,20.08
2022-08-03T00:29:12.689Z,20.12
2022-08-03T00:31:52.226Z,20.14
2022-08-03T00:34:29.816Z,20.04
2022-08-03T00:37:03.732Z,19.96
2022-08-03T00:39:30.602Z,19.91
2022-08-03T00:41:57.574Z,19.93
2022-08-03T00:44:24.514Z,19.99
2022-08-03T00:46:51.470Z,20.10
2022-08-03T00:49:18.342Z,20.15
2022-08-03T00:51:45.410Z,20.06
2022-08-03T00:54:12.363Z,20.03
2022-08-03T00:56:39.687Z,20.06
2022-08-03T00:59:26.597Z,20.02
2022-08-03T01:01:53.948Z,19.99
2022-08-03T01:04:20.804Z,20.05
2022-08-03T01:07:11.234Z,20.18
2022-08-03T01:09:38.108Z,20.15
2022-08-03T01:12:19.692Z,20.09
2022-08-03T01:14:52.002Z,20.10
2022-08-03T01:17:29.115Z,20.05
2022-08-03T01:20:01.762Z,20.14
2022-08-03T01:22:28.945Z,20.14
2022-08-03T01:25:14.317Z,20.01
2022-08-03T01:27:41.218Z,19.91
2022-08-03T01:30:09.220Z,19.79
2022-08-03T01:32:53.230Z,19.72
2022-08-03T01:35:39.264Z,19.65
2022-08-03T01:38:10.144Z,19.61
2022-08-03T01:40:39.658Z,19.59
2022-08-03T01:43:08.140Z,19.58
2022-08-03T01:45:36.921Z,19.60
2022-08-03T01:48:05.441Z,19.66
2022-08-03T01:50:34.419Z,19.76
2022-08-03T01:53:02.129Z,19.71
2022-08-03T01:55:32.098Z,19.63
2022-08-03T01:58:05.635Z,19.56
2022-08-03T02:00:35.710Z,19.49
2022-08-03T02:03:04.249Z,19.46
2022-08-03T02:05:32.193Z,19.43
2022-08-03T02:08:00.755Z,19.51
2022-08-03T02:10:34.524Z,19.45
2022-08-03T02:13:03.460Z,19.39
2022-08-03T02:15:30.733Z,19.33
2022-08-03T02:17:58.907Z,19.28
2022-08-03T02:20:27.258Z,19.26
2022-08-03T02:22:54.209Z,19.25
2022-08-03T02:25:21.067Z,19.22
2022-08-03T02:27:58.733Z,19.19
2022-08-03T02:30:30.283Z,19.23
2022-08-03T02:32:58.356Z,19.19
2022-08-03T02:35:26.639Z,19.18
2022-08-03T02:37:56.754Z,19.14
2022-08-03T02:40:24.698Z,19.12
2022-08-03T02:42:53.470Z,19.11
2022-08-03T02:45:21.231Z,19.24
2022-08-03T02:47:53.320Z,19.38
2022-08-03T02:50:22.948Z,19.42
2022-08-03T02:52:51.381Z,19.38
2022-08-03T02:55:19.816Z,19.27
2022-08-03T02:57:47.586Z,19.25
2022-08-03T03:00:27.407Z,19.23
2022-08-03T03:02:57.446Z,19.43
2022-08-03T03:05:56.041Z,19.39
2022-08-03T03:08:28.319Z,19.23
2022-08-03T03:11:00.289Z,19.12
2022-08-03T03:13:31.133Z,19.06
2022-08-03T03:16:04.924Z,18.94
2022-08-03T03:18:33.367Z,18.92
2022-08-03T03:21:01.738Z,18.90
2022-08-03T03:23:29.407Z,18.87
2022-08-03T03:25:56.680Z,18.90
2022-08-03T03:28:24.370Z,18.89
2022-08-03T03:30:52.711Z,18.85
2022-08-03T03:33:20.794Z,18.84
2022-08-03T03:35:47.866Z,18.87
2022-08-03T03:38:14.792Z,18.88
2022-08-03T03:40:42.154Z,18.86
2022-08-03T03:43:09.977Z,18.87
2022-08-03T03:45:37.365Z,18.87
2022-08-03T03:48:05.423Z,18.84
2022-08-03T03:50:32.683Z,18.89
2022-08-03T03:53:03.871Z,18.96
2022-08-03T03:58:46.621Z,18.95
2022-08-03T04:01:13.800Z,18.99
2022-08-03T04:03:40.795Z,19.06
2022-08-03T04:06:26.325Z,19.20
2022-08-03T04:09:19.219Z,19.25
2022-08-03T04:11:49.758Z,19.34
2022-08-03T04:14:19.276Z,19.42
2022-08-03T04:17:12.015Z,19.58
2022-08-03T04:19:42.348Z,19.76
2022-08-03T04:22:10.991Z,20.19
2022-08-03T04:24:46.823Z,20.67
2022-08-03T04:27:15.511Z,21.25
2022-08-03T04:29:48.434Z,21.85
2022-08-03T04:32:16.373Z,22.42
2022-08-03T04:34:44.121Z,22.82
2022-08-03T04:37:12.734Z,23.07
2022-08-03T04:39:42.095Z,23.83
2022-08-03T04:42:12.397Z,24.06
2022-08-03T04:44:40.747Z,24.34
2022-08-03T04:47:08.722Z,24.52
2022-08-03T04:49:37.329Z,24.51
2022-08-03T04:52:05.261Z,24.53
2022-08-03T04:54:39.617Z,24.72
2022-08-03T04:57:06.583Z,24.38
2022-08-03T04:59:33.503Z,24.05
2022-08-03T05:02:07.322Z,24.39
2022-08-03T05:04:34.302Z,24.53
2022-08-03T05:07:12.310Z,24.52
2022-08-03T05:09:39.621Z,24.92
2022-08-03T05:12:18.287Z,25.23
2022-08-03T05:14:45.358Z,25.33
2022-08-03T05:17:12.740Z,25.52
2022-08-03T05:19:39.622Z,25.81
2022-08-03T05:22:06.614Z,25.04
2022-08-03T05:24:33.469Z,24.72
2022-08-03T05:27:00.339Z,24.44
2022-08-03T05:29:27.314Z,24.21
2022-08-03T05:31:54.217Z,23.75
2022-08-03T05:34:21.122Z,23.11
2022-08-03T05:36:48.125Z,22.76
2022-08-03T05:39:15.100Z,22.43
2022-08-03T05:41:42.041Z,22.60
2022-08-03T05:44:08.873Z,22.69
2022-08-03T05:46:35.735Z,22.88
2022-08-03T05:52:11.024Z,23.51
2022-08-03T05:54:55.841Z,24.01
2022-08-03T05:57:25.388Z,23.78
2022-08-03T05:59:53.922Z,23.84
2022-08-03T06:02:25.602Z,23.82
2022-08-03T06:04:52.602Z,24.25
2022-08-03T06:07:19.486Z,24.95
2022-08-03T06:10:37.534Z,25.59
2022-08-03T06:12:36.395Z,25.86
2022-08-03T06:15:04.305Z,25.50
2022-08-03T06:17:37.130Z,25.17
2022-08-03T06:20:05.733Z,24.67
2022-08-03T06:22:32.657Z,24.37
2022-08-03T06:25:03.464Z,24.12
2022-08-03T06:27:36.872Z,24.12
2022-08-03T06:30:05.253Z,24.01
2022-08-03T06:32:32.380Z,23.99
2022-08-03T06:34:59.630Z,24.15
2022-08-03T06:37:27.308Z,24.29
2022-08-03T06:39:54.426Z,24.20
2022-08-03T06:42:22.538Z,24.23
2022-08-03T06:44:49.671Z,24.44
2022-08-03T06:47:16.618Z,24.62
2022-08-03T06:49:43.722Z,24.91
2022-08-03T06:52:37.925Z,25.12
2022-08-03T06:55:06.183Z,25.02
2022-08-03T06:57:33.272Z,25.15
2022-08-03T07:00:07.446Z,25.36
2022-08-03T07:02:38.716Z,25.36
2022-08-03T07:05:06.184Z,25.42
2022-08-03T07:07:33.058Z,25.43
2022-08-03T07:10:00.005Z,25.69
2022-08-03T07:12:30.125Z,25.53
2022-08-03T07:15:00.781Z,25.73
2022-08-03T07:17:29.492Z,25.81
2022-08-03T07:19:57.028Z,25.80
2022-08-03T07:22:24.120Z,26.05
2022-08-03T07:24:51.062Z,26.00
2022-08-03T07:27:17.990Z,26.10
2022-08-03T07:29:45.086Z,26.13
2022-08-03T07:32:12.172Z,26.17
2022-08-03T07:34:39.076Z,26.27
2022-08-03T07:37:06.082Z,26.30
2022-08-03T07:39:33.025Z,26.45
2022-08-03T07:42:00.016Z,26.61
2022-08-03T07:44:27.053Z,26.79
2022-08-03T07:46:54.069Z,26.68
2022-08-03T07:49:23.766Z,26.77
2022-08-03T07:52:10.747Z,27.00
2022-08-03T07:54:37.845Z,27.16
2022-08-03T07:57:04.781Z,27.17
2022-08-03T07:59:57.109Z,27.19
2022-08-03T08:02:19.009Z,27.26
2022-08-03T08:04:46.021Z,27.36
2022-08-03T08:07:12.986Z,27.39
2022-08-03T08:09:39.920Z,27.72
2022-08-03T08:12:15.044Z,27.74
2022-08-03T08:14:45.921Z,27.84
2022-08-03T08:17:13.277Z,27.79
2022-08-03T08:19:43.846Z,27.90
2022-08-03T08:22:18.655Z,27.73
2022-08-03T08:24:52.709Z,27.67
2022-08-03T08:27:22.282Z,27.52
2022-08-03T08:29:55.250Z,27.67
2022-08-03T08:32:23.471Z,27.69
2022-08-03T08:34:50.399Z,27.86
2022-08-03T08:37:17.432Z,28.02
2022-08-03T08:39:44.321Z,28.08
2022-08-03T08:42:11.338Z,27.93
2022-08-03T08:44:38.210Z,27.98
2022-08-03T08:47:05.806Z,28.07
2022-08-03T08:49:33.088Z,28.33
2022-08-03T08:52:01.667Z,28.08
2022-08-03T08:54:29.869Z,28.09
2022-08-03T08:56:57.640Z,27.77
2022-08-03T08:59:25.083Z,27.98
2022-08-03T09:01:56.828Z,28.28
2022-08-03T09:04:23.802Z,28.56
2022-08-03T09:07:17.637Z,28.27
2022-08-03T09:10:10.352Z,28.14
2022-08-03T09:12:42.336Z,28.41
2022-08-03T09:15:28.743Z,28.19
2022-08-03T09:17:57.103Z,28.02
2022-08-03T09:20:25.699Z,28.14
2022-08-03T09:22:59.158Z,28.14
2022-08-03T09:25:36.802Z,28.42
2022-08-03T09:28:06.326Z,28.53
2022-08-03T09:30:35.222Z,28.31
2022-08-03T09:33:03.786Z,28.43
2022-08-03T09:35:53.059Z,28.57
2022-08-03T09:38:26.348Z,28.31
2022-08-03T09:40:59.167Z,28.50
2022-08-03T09:43:27.857Z,28.72
2022-08-03T09:46:05.090Z,28.77
2022-08-03T09:48:34.938Z,29.02
2022-08-03T09:51:12.530Z,29.06
2022-08-03T09:53:58.924Z,29.13
2022-08-03T09:56:40.430Z,28.99
2022-08-03T09:59:07.690Z,28.69
2022-08-03T10:01:35.491Z,28.82
2022-08-03T10:04:03.499Z,28.99
2022-08-03T10:06:32.107Z,29.02
2022-08-03T10:09:07.178Z,29.30
2022-08-03T10:11:41.182Z,29.37
2022-08-03T10:14:10.746Z,29.51
2022-08-03T10:16:39.016Z,29.83
2022-08-03T10:19:06.812Z,29.93
2022-08-03T10:21:35.008Z,29.85
2022-08-03T10:24:11.658Z,29.64
2022-08-03T10:26:40.188Z,29.64
2022-08-03T10:29:21.927Z,29.45
2022-08-03T10:31:57.890Z,29.58
2022-08-03T10:34:29.675Z,29.45
2022-08-03T10:36:59.010Z,29.51
2022-08-03T10:39:28.809Z,29.73
2022-08-03T10:41:59.921Z,29.78
2022-08-03T10:44:40.070Z,29.71
2022-08-03T10:47:09.701Z,29.63
2022-08-03T10:49:37.053Z,29.94
2022-08-03T10:52:07.577Z,29.89
2022-08-03T10:55:07.267Z,30.09
2022-08-03T10:57:44.232Z,30.01
2022-08-03T11:00:17.032Z,30.00
2022-08-03T11:03:03.300Z,30.06
2022-08-03T11:05:31.101Z,30.33
2022-08-03T11:08:16.400Z,30.30
2022-08-03T11:10:43.351Z,30.11
2022-08-03T11:13:11.233Z,29.68
2022-08-03T11:15:44.811Z,29.84
2022-08-03T11:18:12.571Z,29.83
2022-08-03T11:20:50.431Z,30.13
2022-08-03T11:23:18.375Z,29.93
2022-08-03T11:26:09.065Z,30.30
2022-08-03T11:28:36.174Z,30.74
2022-08-03T11:31:46.936Z,30.91
2022-08-03T11:34:12.418Z,30.86
2022-08-03T11:36:58.623Z,30.29
2022-08-03T11:39:45.911Z,30.46
2022-08-03T11:42:25.700Z,30.65
2022-08-03T11:44:56.402Z,30.10
2022-08-03T11:47:24.553Z,30.29
2022-08-03T11:49:52.117Z,30.55
2022-08-03T11:52:19.679Z,30.27
2022-08-03T11:54:56.621Z,29.90
2022-08-03T11:59:16.812Z,30.01
2022-08-03T12:00:22.955Z,30.20
2022-08-03T12:02:56.724Z,30.52
2022-08-03T12:05:36.473Z,30.05
2022-08-03T12:08:06.767Z,30.21
2022-08-03T12:10:34.399Z,30.21
2022-08-03T12:13:02.761Z,30.39
2022-08-03T12:15:31.223Z,30.78
2022-08-03T12:17:58.293Z,30.38
2022-08-03T12:20:31.346Z,30.51
2022-08-03T12:23:02.827Z,30.72
2022-08-03T12:25:39.423Z,30.71
2022-08-03T12:28:37.103Z,30.40
2022-08-03T12:30:56.098Z,30.51
2022-08-03T12:33:27.277Z,30.72
2022-08-03T12:36:04.051Z,31.07
2022-08-03T12:38:32.696Z,31.11
2022-08-03T12:41:05.282Z,31.42
2022-08-03T12:43:39.489Z,31.33
2022-08-03T12:46:07.449Z,31.50
2022-08-03T12:48:34.354Z,31.45
2022-08-03T12:51:11.241Z,31.36
2022-08-03T12:53:38.287Z,31.47
2022-08-03T12:56:06.326Z,31.48
2022-08-03T12:58:35.314Z,30.65
2022-08-03T13:01:09.772Z,30.82
2022-08-03T13:03:42.575Z,31.22
2022-08-03T13:06:16.711Z,31.36
2022-08-03T13:08:44.510Z,31.06
2022-08-03T13:11:23.602Z,31.41
2022-08-03T13:14:13.458Z,31.68
2022-08-03T13:16:46.980Z,31.10
2022-08-03T13:19:15.549Z,31.25
2022-08-03T13:22:02.196Z,31.25
2022-08-03T13:24:31.356Z,31.66
2022-08-03T13:26:58.999Z,31.79
2022-08-03T13:29:25.905Z,32.09
2022-08-03T13:31:52.895Z,32.14
2022-08-03T13:34:23.487Z,32.15
2022-08-03T13:37:09.278Z,31.63
2022-08-03T13:39:57.333Z,31.24
2022-08-03T13:42:24.395Z,31.08
2022-08-03T13:44:51.400Z,31.15
2022-08-03T13:47:18.662Z,31.78
2022-08-03T13:49:58.898Z,32.33
2022-08-03T13:52:33.645Z,32.17
2022-08-03T13:55:00.866Z,31.63
2022-08-03T13:58:03.026Z,31.63
2022-08-03T14:00:26.251Z,31.94
2022-08-03T14:03:02.915Z,32.37
2022-08-03T14:05:32.646Z,32.51
2022-08-03T14:08:03.829Z,32.92
2022-08-03T14:10:32.843Z,32.41
2022-08-03T14:13:00.611Z,32.23
2022-08-03T14:15:28.816Z,32.36
2022-08-03T14:17:56.506Z,32.38
2022-08-03T14:20:37.959Z,32.13
2022-08-03T14:23:07.143Z,32.15
2022-08-03T14:25:50.013Z,32.46
2022-08-03T14:28:19.830Z,32.69
2022-08-03T14:30:46.715Z,32.42
2022-08-03T14:33:13.577Z,32.68
2022-08-03T14:35:44.546Z,32.69
2022-08-03T14:38:11.527Z,32.95
2022-08-03T14:40:38.446Z,33.21
2022-08-03T14:43:05.337Z,33.55
2022-08-03T14:45:32.306Z,33.70
2022-08-03T14:50:34.818Z,32.70
2022-08-03T14:50:51.838Z,32.54
2022-08-03T14:53:20.176Z,32.20
2022-08-03T14:55:51.307Z,31.78
2022-08-03T14:58:22.625Z,31.35
2022-08-03T15:00:50.785Z,31.18
2022-08-03T15:03:20.629Z,31.25
2022-08-03T15:05:47.654Z,31.07
2022-08-03T15:08:14.703Z,30.94
2022-08-03T15:10:44.888Z,30.98
2022-08-03T15:13:13.186Z,30.56
2022-08-03T15:15:40.551Z,30.41
2022-08-03T15:18:07.742Z,30.33
2022-08-03T15:20:49.908Z,30.33
2022-08-03T15:23:17.295Z,30.52
2022-08-03T15:26:28.679Z,30.53
2022-08-03T15:28:32.148Z,31.04
2022-08-03T15:30:59.066Z,32.81
2022-08-03T15:33:26.089Z,34.73
2022-08-03T15:35:53.524Z,36.71
2022-08-03T15:38:25.738Z,37.91
2022-08-03T15:40:54.809Z,38.84
2022-08-03T15:43:22.234Z,38.86
2022-08-03T15:45:54.646Z,39.11
2022-08-03T15:48:36.154Z,38.42
2022-08-03T15:51:04.461Z,39.01
2022-08-03T15:53:31.406Z,38.54
2022-08-03T15:55:58.250Z,39.81
2022-08-03T15:59:03.987Z,38.26
2022-08-03T16:01:19.881Z,38.65
2022-08-03T16:03:47.183Z,38.75
2022-08-03T16:06:14.055Z,38.46
2022-08-03T16:08:41.175Z,38.50
2022-08-03T16:11:08.000Z,39.17
2022-08-03T16:14:13.023Z,38.82
2022-08-03T16:16:22.034Z,38.85
2022-08-03T16:18:48.977Z,38.39
2022-08-03T16:21:19.286Z,38.34
2022-08-03T16:23:47.295Z,38.20
2022-08-03T16:26:14.434Z,38.37
2022-08-03T16:28:41.651Z,38.09
2022-08-03T16:31:09.281Z,38.39
2022-08-03T16:33:36.494Z,38.34
2022-08-03T16:36:03.524Z,38.42
2022-08-03T16:38:30.748Z,37.56
2022-08-03T16:40:57.700Z,35.72
2022-08-03T16:43:24.922Z,34.71
2022-08-03T16:45:52.082Z,33.67
2022-08-03T16:48:19.092Z,32.71
2022-08-03T16:50:46.339Z,33.56
2022-08-03T16:53:17.064Z,35.53
2022-08-03T16:56:00.377Z,36.79
2022-08-03T16:58:34.335Z,36.75
2022-08-03T17:01:21.188Z,36.12
2022-08-03T17:04:01.842Z,36.52
2022-08-03T17:06:34.408Z,36.66
2022-08-03T17:09:03.224Z,36.92
2022-08-03T17:11:32.157Z,36.72
2022-08-03T17:14:00.506Z,36.53
2022-08-03T17:16:28.323Z,36.81
2022-08-03T17:19:02.011Z,36.89
2022-08-03T17:21:30.967Z,37.01
2022-08-03T17:24:00.109Z,37.37
2022-08-03T17:26:30.587Z,37.63
2022-08-03T17:29:00.186Z,36.87
2022-08-03T17:31:31.409Z,35.42
2022-08-03T17:34:00.730Z,33.42
2022-08-03T17:36:47.697Z,32.12
2022-08-03T17:39:16.607Z,31.35
2022-08-03T17:41:50.163Z,30.95
2022-08-03T17:44:31.975Z,30.32
2022-08-03T17:47:07.729Z,30.11
2022-08-03T17:49:40.022Z,29.92
2022-08-03T17:52:17.538Z,29.71
2022-08-03T17:55:50.714Z,29.57
2022-08-03T17:58:01.459Z,29.42
2022-08-03T18:00:51.641Z,29.26
2022-08-03T18:03:56.994Z,29.16
2022-08-03T18:06:28.699Z,28.92
2022-08-03T18:08:58.277Z,28.84
2022-08-03T18:11:35.497Z,28.75
2022-08-03T18:14:16.149Z,28.63
2022-08-03T18:16:44.784Z,28.50
2022-08-03T18:22:02.589Z,28.19
2022-08-03T18:24:31.229Z,28.04
2022-08-03T18:26:59.287Z,27.95
2022-08-03T18:29:27.697Z,28.02
2022-08-03T18:32:03.002Z,28.02
2022-08-03T18:34:32.474Z,28.04
2022-08-03T18:37:04.413Z,27.96
2022-08-03T18:39:49.287Z,27.79
2022-08-03T18:42:18.999Z,27.70
2022-08-03T18:44:54.360Z,27.69
2022-08-03T18:47:28.498Z,27.92
2022-08-03T18:50:21.573Z,27.77
2022-08-03T18:52:53.252Z,28.05
2022-08-03T18:55:33.067Z,28.07
2022-08-03T18:58:15.873Z,28.06
2022-08-03T19:00:54.702Z,27.94
2022-08-03T19:03:24.741Z,27.88
2022-08-03T19:06:02.638Z,27.73
2022-08-03T19:08:41.166Z,27.82
2022-08-03T19:11:10.369Z,27.69
2022-08-03T19:13:50.442Z,27.54
2022-08-03T19:16:24.667Z,27.54
2022-08-03T19:18:54.273Z,27.51
2022-08-03T19:21:22.489Z,27.49
2022-08-03T19:23:49.585Z,27.36
2022-08-03T19:26:31.167Z,27.29
2022-08-03T19:28:58.870Z,27.20
2022-08-03T19:31:30.959Z,27.15
2022-08-03T19:34:02.806Z,27.18
2022-08-03T19:36:29.748Z,27.19
2022-08-03T19:38:57.181Z,27.13
2022-08-03T19:41:24.813Z,27.00
2022-08-03T19:43:59.083Z,27.01
2022-08-03T19:46:31.027Z,27.07
2022-08-03T19:49:16.647Z,27.00
2022-08-03T19:52:01.026Z,26.84
2022-08-03T19:54:53.069Z,26.71
2022-08-03T19:57:23.509Z,26.56
2022-08-03T19:59:51.079Z,26.46
2022-08-03T20:02:26.766Z,26.39
2022-08-03T20:04:56.011Z,26.33
2022-08-03T20:07:23.120Z,26.17
2022-08-03T20:09:54.535Z,26.10
2022-08-03T20:12:26.438Z,25.98
2022-08-03T20:14:56.608Z,26.01
2022-08-03T20:17:53.949Z,25.91
2022-08-03T20:20:13.748Z,25.75
2022-08-03T20:22:46.112Z,25.66
2022-08-03T20:25:16.366Z,25.57
2022-08-03T20:28:03.610Z,25.51
2022-08-03T20:30:35.714Z,25.50
2022-08-03T20:33:04.557Z,25.38
2022-08-03T20:35:33.199Z,25.31
2022-08-03T20:38:00.535Z,25.22
2022-08-03T20:40:29.768Z,25.21
2022-08-03T20:42:56.803Z,25.29
2022-08-03T20:45:59.366Z,25.24
2022-08-03T20:48:10.724Z,25.16
2022-08-03T20:50:40.695Z,25.19
2022-08-03T20:53:12.117Z,25.15
2022-08-03T20:55:47.752Z,25.10
2022-08-03T20:58:27.532Z,24.99
2022-08-03T21:00:56.969Z,24.86
2022-08-03T21:03:23.945Z,24.78
2022-08-03T21:06:10.165Z,24.75
2022-08-03T21:08:39.313Z,24.70
2022-08-03T21:11:16.896Z,24.68
2022-08-03T21:13:05.814Z,28.38
2022-08-03T21:13:43.756Z,24.65
2022-08-03T21:16:14.975Z,24.61
2022-08-03T21:18:49.029Z,24.52
2022-08-03T21:21:17.592Z,24.49
2022-08-03T21:23:48.181Z,24.43
2022-08-03T21:26:16.972Z,24.36
2022-08-03T21:28:45.381Z,24.30
2022-08-03T21:31:13.249Z,24.22
2022-08-03T21:33:40.901Z,24.20
2022-08-03T21:36:11.411Z,24.17
2022-08-03T21:38:39.683Z,24.09
2022-08-03T21:41:08.007Z,24.08
2022-08-03T21:43:35.007Z,24.03
2022-08-03T21:46:03.078Z,24.00
2022-08-03T21:48:34.360Z,23.97
2022-08-03T21:51:01.538Z,23.97
2022-08-03T21:54:03.949Z,23.94
2022-08-03T21:56:19.332Z,23.87
2022-08-03T21:58:51.064Z,23.85
2022-08-03T22:01:19.494Z,23.85
2022-08-03T22:03:53.804Z,23.78
2022-08-03T22:06:27.015Z,23.74
2022-08-03T22:08:54.928Z,23.64
2022-08-03T22:11:22.099Z,23.58
2022-08-03T22:13:50.272Z,23.54
2022-08-03T22:16:17.194Z,23.51
2022-08-03T22:18:45.331Z,23.44
2022-08-03T22:21:15.188Z,23.42
2022-08-03T22:23:44.086Z,23.38
2022-08-03T22:26:14.014Z,23.35
2022-08-03T22:28:42.062Z,23.32
2022-08-03T22:31:56.951Z,23.26
2022-08-03T22:33:56.144Z,23.31
2022-08-03T22:36:23.974Z,23.31
2022-08-03T22:38:51.980Z,23.48
2022-08-03T22:41:18.964Z,23.53
2022-08-03T22:43:45.901Z,23.51
2022-08-03T22:46:18.730Z,23.53
2022-08-03T22:48:46.905Z,23.69
2022-08-03T22:51:15.459Z,23.70
2022-08-03T22:53:44.936Z,23.78
2022-08-03T22:56:12.013Z,23.73
2022-08-03T22:58:38.922Z,23.84
2022-08-03T23:01:09.750Z,23.83
2022-08-03T23:03:58.626Z,23.86
2022-08-03T23:06:26.496Z,23.77
2022-08-03T23:08:53.742Z,23.69
2022-08-03T23:11:23.062Z,23.58
2022-08-03T23:13:53.237Z,23.39
2022-08-03T23:16:28.737Z,23.19
2022-08-03T23:18:57.973Z,23.08
2022-08-03T23:22:00.576Z,23.01
2022-08-03T23:24:26.012Z,23.01
2022-08-03T23:26:57.776Z,22.94
2022-08-03T23:29:24.718Z,22.83
2022-08-03T23:31:52.901Z,22.74
2022-08-03T23:34:38.674Z,22.66
2022-08-03T23:37:05.685Z,22.61
2022-08-03T23:39:35.136Z,22.58
2022-08-03T23:42:03.641Z,22.53
2022-08-03T23:44:31.460Z,22.65
2022-08-03T23:46:58.361Z,22.67
2022-08-03T23:49:25.285Z,22.80
2022-08-03T23:52:11.209Z,22.88
2022-08-03T23:54:38.136Z,22.79
2022-08-03T23:57:17.212Z,22.66
2022-08-03T23:59:49.814Z,22.58
